createdAt,value
2018-05-04T00:00:05.856Z,34.83
2018-05-04T00:02:38.277Z,34.73
2018-05-04T00:05:10.990Z,35.30
2018-05-04T00:07:44.942Z,35.45
2018-05-04T00:10:18.664Z,36.01
2018-05-04T00:12:51.444Z,34.67
2018-05-04T00:15:24.525Z,34.95
2018-05-04T00:17:58.656Z,35.20
2018-05-04T00:20:32.558Z,34.98
2018-05-04T00:23:05.643Z,34.91
2018-05-04T00:25:37.070Z,34.83
2018-05-04T00:28:09.669Z,34.85
2018-05-04T00:30:42.869Z,34.77
2018-05-04T00:33:15.710Z,34.70
2018-05-04T00:35:48.484Z,34.48
2018-05-04T00:38:21.597Z,34.40
2018-05-04T00:40:55.569Z,34.46
2018-05-04T00:43:28.745Z,34.44
2018-05-04T00:47:46.742Z,34.38
2018-05-04T00:50:19.958Z,34.43
2018-05-04T00:52:52.987Z,34.45
2018-05-04T00:55:26.400Z,34.39
2018-05-04T00:58:00.411Z,34.46
2018-05-04T01:00:33.541Z,34.40
2018-05-04T01:03:07.758Z,34.30
2018-05-04T01:05:42.414Z,34.32
2018-05-04T01:08:14.403Z,34.52
2018-05-04T01:10:46.479Z,34.46
2018-05-04T01:13:18.339Z,34.38
2018-05-04T01:15:51.302Z,34.47
2018-05-04T01:18:24.493Z,34.54
2018-05-04T01:20:57.585Z,34.55
2018-05-04T01:23:31.652Z,34.58
2018-05-04T01:26:08.557Z,34.71
2018-05-04T01:28:42.521Z,34.77
2018-05-04T01:31:16.108Z,34.63
2018-05-04T01:33:49.908Z,34.78
2018-05-04T01:36:22.885Z,34.73
2018-05-04T01:38:56.429Z,34.65
2018-05-04T01:41:31.221Z,34.76
2018-05-04T01:44:04.231Z,34.89
2018-05-04T01:46:37.544Z,34.86
2018-05-04T01:49:10.543Z,34.96
2018-05-04T01:51:44.473Z,34.96
2018-05-04T01:54:17.732Z,35.00
2018-05-04T01:56:50.742Z,35.06
2018-05-04T01:59:23.540Z,35.11
2018-05-04T02:01:57.690Z,35.07
2018-05-04T02:04:31.425Z,35.04
2018-05-04T02:07:04.731Z,35.15
2018-05-04T02:09:36.926Z,35.24
2018-05-04T02:12:08.836Z,35.32
2018-05-04T02:14:43.650Z,35.29
2018-05-04T02:17:16.464Z,35.27
2018-05-04T02:19:50.103Z,35.26
2018-05-04T02:22:23.892Z,35.26
2018-05-04T02:24:59.335Z,35.39
2018-05-04T02:28:29.430Z,35.53
2018-05-04T02:31:02.694Z,35.68
2018-05-04T02:33:40.257Z,35.61
2018-05-04T02:36:14.928Z,35.59
2018-05-04T02:38:47.933Z,35.65
2018-05-04T02:41:21.756Z,35.72
2018-05-04T02:43:54.934Z,35.65
2018-05-04T02:46:28.542Z,35.83
2018-05-04T02:49:01.571Z,35.89
2018-05-04T02:51:34.882Z,35.87
2018-05-04T02:54:08.592Z,36.03
2018-05-04T02:56:42.544Z,36.19
2018-05-04T02:59:14.491Z,36.16
2018-05-04T03:01:48.398Z,36.27
2018-05-04T03:04:21.342Z,36.36
2018-05-04T03:06:55.345Z,36.35
2018-05-04T03:09:29.923Z,36.46
2018-05-04T03:12:04.750Z,36.58
2018-05-04T03:14:36.941Z,36.60
2018-05-04T03:17:08.933Z,36.60
2018-05-04T03:19:40.946Z,36.67
2018-05-04T03:22:14.489Z,36.87
2018-05-04T03:24:48.505Z,36.81
2018-05-04T03:27:22.565Z,36.91
2018-05-04T03:29:55.403Z,37.05
2018-05-04T03:32:29.329Z,37.04
2018-05-04T03:35:02.655Z,37.47
2018-05-04T03:37:35.818Z,37.67
2018-05-04T03:40:08.697Z,37.78
2018-05-04T03:42:41.643Z,38.08
2018-05-04T03:45:15.088Z,37.89
2018-05-04T03:47:48.072Z,38.05
2018-05-04T03:50:22.011Z,38.12
2018-05-04T03:52:53.934Z,37.99
2018-05-04T03:55:26.459Z,37.94
2018-05-04T03:58:09.544Z,38.12
2018-05-04T04:00:53.503Z,38.02
2018-05-04T04:03:36.680Z,37.96
2018-05-04T04:06:08.610Z,38.08
2018-05-04T04:08:43.390Z,38.22
2018-05-04T04:11:16.393Z,38.07
2018-05-04T04:13:50.031Z,38.14
2018-05-04T04:16:24.330Z,38.14
2018-05-04T04:18:57.597Z,38.22
2018-05-04T04:21:30.413Z,38.19
2018-05-04T04:24:03.645Z,38.19
2018-05-04T04:26:35.417Z,38.37
2018-05-04T04:29:08.053Z,38.21
2018-05-04T04:31:41.287Z,38.35
2018-05-04T04:34:14.168Z,38.49
2018-05-04T04:36:48.583Z,38.51
2018-05-04T04:39:22.590Z,38.72
2018-05-04T04:41:55.970Z,38.62
2018-05-04T04:44:29.460Z,38.73
2018-05-04T04:47:01.951Z,38.73
2018-05-04T04:49:34.421Z,38.71
2018-05-04T04:52:06.422Z,38.85
2018-05-04T04:54:39.355Z,38.83
2018-05-04T04:57:13.073Z,38.77
2018-05-04T04:59:47.698Z,38.78
2018-05-04T05:02:19.459Z,39.08
2018-05-04T05:04:52.647Z,38.89
2018-05-04T05:07:25.526Z,39.15
2018-05-04T05:09:58.453Z,39.24
2018-05-04T05:14:27.116Z,39.10
2018-05-04T05:17:00.422Z,39.10
2018-05-04T05:19:33.333Z,39.39
2018-05-04T05:22:07.291Z,39.23
2018-05-04T05:24:40.731Z,39.25
2018-05-04T05:27:13.658Z,39.18
2018-05-04T05:29:46.705Z,39.71
2018-05-04T05:32:19.958Z,39.56
2018-05-04T05:34:53.549Z,39.46
2018-05-04T05:37:27.793Z,39.59
2018-05-04T05:39:59.469Z,39.64
2018-05-04T05:42:32.454Z,39.54
2018-05-04T05:45:05.134Z,39.74
2018-05-04T05:47:38.492Z,39.78
2018-05-04T05:50:12.095Z,40.10
2018-05-04T05:52:46.646Z,40.12
2018-05-04T05:55:19.489Z,39.74
2018-05-04T05:57:52.653Z,40.16
2018-05-04T06:00:25.415Z,39.98
2018-05-04T06:02:58.626Z,39.88
2018-05-04T06:05:31.445Z,40.21
2018-05-04T06:08:04.274Z,40.24
2018-05-04T06:10:36.747Z,40.30
2018-05-04T06:13:10.569Z,40.37
2018-05-04T06:15:44.192Z,40.49
2018-05-04T06:18:17.007Z,40.55
2018-05-04T06:20:51.439Z,40.33
2018-05-04T06:23:24.279Z,40.44
2018-05-04T06:25:57.935Z,40.25
2018-05-04T06:28:31.766Z,40.51
2018-05-04T06:31:05.784Z,40.49
2018-05-04T06:33:38.604Z,40.39
2018-05-04T06:36:11.170Z,40.34
2018-05-04T06:38:45.140Z,40.67
2018-05-04T06:41:18.773Z,40.81
2018-05-04T06:43:51.105Z,40.42
2018-05-04T06:46:24.431Z,40.73
2018-05-04T06:48:57.148Z,40.93
2018-05-04T06:51:31.468Z,40.93
2018-05-04T06:54:04.969Z,40.78
2018-05-04T06:56:37.982Z,40.60
2018-05-04T06:59:11.242Z,40.73
2018-05-04T07:01:45.086Z,41.04
2018-05-04T07:04:18.355Z,41.19
2018-05-04T07:06:51.351Z,41.00
2018-05-04T07:09:24.433Z,40.85
2018-05-04T07:11:59.091Z,40.97
2018-05-04T07:14:32.714Z,41.21
2018-05-04T07:17:05.488Z,41.21
2018-05-04T07:19:38.847Z,41.41
2018-05-04T07:22:12.117Z,41.19
2018-05-04T07:24:45.028Z,41.46
2018-05-04T07:27:18.655Z,41.46
2018-05-04T07:29:50.445Z,41.60
2018-05-04T07:32:23.970Z,41.69
2018-05-04T07:34:57.030Z,41.76
2018-05-04T07:37:29.683Z,41.58
2018-05-04T07:40:03.592Z,41.69
2018-05-04T07:42:37.288Z,41.63
2018-05-04T07:45:10.617Z,41.57
2018-05-04T07:47:44.500Z,41.67
2018-05-04T07:50:19.438Z,41.63
2018-05-04T07:52:53.056Z,41.79
2018-05-04T07:55:26.256Z,41.70
2018-05-04T07:57:59.466Z,41.75
2018-05-04T08:00:32.673Z,41.87
2018-05-04T08:03:05.631Z,41.86
2018-05-04T08:05:38.459Z,41.91
2018-05-04T08:08:11.598Z,42.02
2018-05-04T08:10:44.463Z,42.30
2018-05-04T08:13:17.422Z,42.23
2018-05-04T08:15:50.498Z,42.38
2018-05-04T08:18:23.432Z,42.42
2018-05-04T08:20:54.934Z,42.33
2018-05-04T08:23:27.527Z,42.33
2018-05-04T08:26:00.823Z,42.28
2018-05-04T08:28:32.601Z,42.04
2018-05-04T08:31:06.049Z,42.17
2018-05-04T08:33:39.291Z,42.38
2018-05-04T08:36:12.470Z,42.32
2018-05-04T08:38:45.457Z,42.22
2018-05-04T08:41:18.592Z,42.31
2018-05-04T08:43:51.792Z,42.25
2018-05-04T08:46:24.770Z,42.36
2018-05-04T08:48:58.214Z,42.44
2018-05-04T08:51:30.387Z,42.29
2018-05-04T08:54:03.204Z,42.21
2018-05-04T08:56:36.206Z,42.28
2018-05-04T08:59:08.974Z,42.27
2018-05-04T09:01:42.530Z,42.32
2018-05-04T09:04:15.690Z,42.38
2018-05-04T09:06:49.524Z,42.18
2018-05-04T09:09:22.664Z,42.20
2018-05-04T09:11:55.917Z,42.51
2018-05-04T09:14:29.075Z,42.23
2018-05-04T09:17:02.476Z,42.32
2018-05-04T09:20:55.554Z,42.32
2018-05-04T09:23:33.527Z,42.11
2018-05-04T09:26:06.566Z,42.17
2018-05-04T09:28:39.282Z,42.22
2018-05-04T09:31:11.434Z,42.31
2018-05-04T09:33:44.981Z,42.26
2018-05-04T09:36:17.537Z,42.22
2018-05-04T09:38:50.438Z,41.98
2018-05-04T09:41:23.408Z,41.96
2018-05-04T09:43:56.430Z,42.03
2018-05-04T09:46:29.401Z,42.16
2018-05-04T09:49:02.778Z,42.06
2018-05-04T09:51:36.329Z,41.91
2018-05-04T09:54:09.045Z,42.05
2018-05-04T09:56:41.938Z,42.24
2018-05-04T09:59:14.844Z,42.38
2018-05-04T10:01:47.928Z,42.40
2018-05-04T10:04:20.430Z,42.40
2018-05-04T10:06:53.424Z,42.18
2018-05-04T10:09:26.060Z,42.08
2018-05-04T10:11:59.068Z,41.71
2018-05-04T10:14:32.448Z,41.74
2018-05-04T10:17:05.981Z,41.64
2018-05-04T10:19:38.441Z,41.61
2018-05-04T10:22:11.715Z,41.70
2018-05-04T10:24:44.492Z,42.08
2018-05-04T10:27:18.926Z,42.09
2018-05-04T10:29:51.931Z,42.10
2018-05-04T10:32:25.917Z,42.46
2018-05-04T10:34:59.412Z,42.47
2018-05-04T10:37:32.607Z,42.20
2018-05-04T10:40:05.413Z,42.37
2018-05-04T12:36:57.299Z,45.10
2018-05-04T12:39:30.459Z,45.17
2018-05-04T12:42:03.291Z,45.23
2018-05-04T12:44:36.512Z,45.11
2018-05-04T12:47:09.188Z,45.08
2018-05-04T12:49:42.023Z,45.37
2018-05-04T12:52:15.087Z,45.31
2018-05-04T12:54:48.039Z,45.05
2018-05-04T12:57:20.701Z,45.12
2018-05-04T12:59:53.495Z,45.33
2018-05-04T13:02:26.499Z,45.38
2018-05-04T13:04:59.474Z,45.41
2018-05-04T13:07:32.436Z,45.30
2018-05-04T13:10:04.961Z,45.46
2018-05-04T13:12:38.654Z,45.37
2018-05-04T13:15:12.256Z,45.38
2018-05-04T13:17:44.992Z,45.53
2018-05-04T13:20:18.570Z,45.59
2018-05-04T13:22:52.265Z,45.60
2018-05-04T13:25:24.952Z,45.60
2018-05-04T13:27:58.251Z,45.59
2018-05-04T13:30:30.542Z,45.69
2018-05-04T13:33:03.544Z,45.93
2018-05-04T13:35:36.482Z,45.95
2018-05-04T13:38:10.540Z,45.84
2018-05-04T13:40:43.940Z,45.90
2018-05-04T13:43:17.403Z,45.96
2018-05-04T13:45:50.562Z,46.06
2018-05-04T13:48:23.650Z,45.83
2018-05-04T13:50:56.151Z,45.93
2018-05-04T13:53:28.557Z,46.09
2018-05-04T13:56:02.423Z,46.06
2018-05-04T13:58:35.401Z,45.96
2018-05-04T14:01:09.108Z,46.12
2018-05-04T14:03:42.465Z,46.22
2018-05-04T14:06:15.539Z,46.23
2018-05-04T14:08:48.419Z,46.20
2018-05-04T14:11:21.593Z,46.13
2018-05-04T14:13:54.432Z,46.12
2018-05-04T14:16:27.960Z,46.10
2018-05-04T14:19:01.410Z,46.25
2018-05-04T14:21:34.236Z,46.06
2018-05-04T14:24:06.547Z,46.05
2018-05-04T14:26:40.556Z,46.19
2018-05-04T14:29:13.426Z,46.29
2018-05-04T14:31:46.899Z,46.09
2018-05-04T14:34:19.931Z,46.15
2018-05-04T14:36:52.647Z,46.10
2018-05-04T14:39:25.399Z,46.15
2018-05-04T14:41:59.331Z,46.03
2018-05-04T14:44:32.487Z,45.91
2018-05-04T14:47:06.109Z,45.88
2018-05-04T14:49:39.327Z,45.84
2018-05-04T14:52:12.940Z,45.83
2018-05-04T14:54:45.666Z,46.04
2018-05-04T14:57:18.859Z,45.95
2018-05-04T14:59:51.838Z,46.21
2018-05-04T15:02:25.505Z,46.23
2018-05-04T15:04:57.571Z,45.93
2018-05-04T15:07:30.469Z,45.92
2018-05-04T15:10:04.614Z,46.06
2018-05-04T15:12:38.445Z,45.94
2018-05-04T15:15:11.443Z,46.04
2018-05-04T15:17:45.970Z,46.26
2018-05-04T15:20:18.434Z,46.34
2018-05-04T15:22:50.982Z,46.30
2018-05-04T15:25:24.964Z,46.35
2018-05-04T15:27:59.052Z,46.43
2018-05-04T15:30:32.057Z,46.43
2018-05-04T15:33:05.424Z,46.48
2018-05-04T15:35:39.464Z,46.23
2018-05-04T15:38:12.464Z,46.23
2018-05-04T15:40:45.030Z,46.34
2018-05-04T15:43:17.429Z,46.27
2018-05-04T15:45:51.431Z,46.42
2018-05-04T15:48:29.331Z,46.40
2018-05-04T15:51:07.571Z,46.37
2018-05-04T15:53:40.760Z,46.48
2018-05-04T15:56:14.050Z,47.53
2018-05-04T15:58:47.551Z,47.66
2018-05-04T16:01:20.123Z,48.04
2018-05-04T16:03:53.119Z,47.31
2018-05-04T16:06:25.979Z,47.89
2018-05-04T16:08:59.117Z,48.82
2018-05-04T16:11:31.673Z,48.57
2018-05-04T16:14:03.828Z,48.44
2018-05-04T16:16:37.642Z,47.71
2018-05-04T16:19:09.337Z,47.48
2018-05-04T16:21:41.072Z,47.81
2018-05-04T16:24:12.873Z,47.58
2018-05-04T16:26:43.421Z,47.62
2018-05-04T16:29:15.070Z,47.47
2018-05-04T16:31:47.099Z,47.60
2018-05-04T16:34:18.991Z,47.57
2018-05-04T16:36:52.269Z,47.77
2018-05-04T16:39:24.443Z,47.48
2018-05-04T16:41:56.189Z,47.24
2018-05-04T16:44:28.073Z,47.07
2018-05-04T16:47:04.933Z,47.16
2018-05-04T16:49:36.533Z,47.07
2018-05-04T16:52:08.030Z,47.25
2018-05-04T16:54:40.425Z,47.32
2018-05-04T16:57:12.217Z,47.37
2018-05-04T17:02:00.531Z,47.16
2018-05-04T17:04:32.436Z,47.06
2018-05-04T17:07:06.435Z,46.99
2018-05-04T17:09:38.078Z,46.46
2018-05-04T17:12:10.322Z,46.53
2018-05-04T17:14:42.257Z,46.64
2018-05-04T17:17:14.002Z,46.63
2018-05-04T17:19:45.532Z,46.51
2018-05-04T17:22:17.800Z,46.63
2018-05-04T17:24:49.612Z,46.33
2018-05-04T17:28:42.315Z,46.21
2018-05-04T17:31:14.067Z,45.95
2018-05-04T17:33:46.217Z,45.94
2018-05-04T17:36:17.851Z,45.57
2018-05-04T17:38:49.405Z,45.66
2018-05-04T17:41:21.322Z,45.70
2018-05-04T17:43:53.416Z,45.52
2018-05-04T17:46:25.519Z,45.50
2018-05-04T17:48:56.956Z,45.50
2018-05-04T17:51:28.550Z,45.39
2018-05-04T17:54:00.421Z,45.34
2018-05-04T17:56:32.039Z,45.23
2018-05-04T17:59:03.662Z,45.14
2018-05-04T18:01:35.740Z,44.92
2018-05-04T18:04:07.539Z,44.91
2018-05-04T18:06:40.079Z,44.89
2018-05-04T18:09:11.885Z,44.60
2018-05-04T18:11:43.791Z,44.69
2018-05-04T18:14:15.594Z,44.54
2018-05-04T18:16:47.529Z,44.45
2018-05-04T18:19:20.142Z,44.37
2018-05-04T18:21:52.524Z,44.51
2018-05-04T18:24:24.779Z,44.55
2018-05-04T18:26:57.017Z,44.51
2018-05-04T18:29:28.760Z,44.53
2018-05-04T18:32:46.556Z,44.45
2018-05-04T18:35:19.967Z,44.38
2018-05-04T18:39:16.567Z,44.29
2018-05-04T18:41:48.111Z,44.10
2018-05-04T18:44:20.819Z,43.81
2018-05-04T18:46:54.560Z,43.76
2018-05-04T18:49:25.088Z,43.79
2018-05-04T18:51:56.971Z,43.77
2018-05-04T18:54:29.018Z,43.51
2018-05-04T18:57:00.975Z,43.53
2018-05-04T18:59:33.344Z,43.50
2018-05-04T19:02:05.516Z,43.35
2018-05-04T19:04:38.970Z,43.19
2018-05-04T19:07:12.517Z,43.11
2018-05-04T19:09:44.586Z,42.94
2018-05-04T19:12:16.249Z,42.83
2018-05-04T19:14:47.971Z,42.78
2018-05-04T19:17:20.101Z,42.64
2018-05-04T19:19:52.266Z,42.52
2018-05-04T19:22:23.887Z,42.35
2018-05-04T19:24:55.444Z,42.34
2018-05-04T19:27:27.567Z,42.16
2018-05-04T19:29:59.427Z,41.79
2018-05-04T19:32:31.437Z,41.84
2018-05-04T19:35:03.560Z,41.77
2018-05-04T19:37:35.456Z,41.86
2018-05-04T19:40:07.970Z,41.67
2018-05-04T19:42:39.552Z,41.36
2018-05-04T19:45:11.106Z,41.38
2018-05-04T19:48:53.671Z,40.98
2018-05-04T19:51:27.228Z,40.79
2018-05-04T19:53:58.759Z,40.61
2018-05-04T19:56:30.988Z,40.66
2018-05-04T19:59:03.000Z,40.31
2018-05-04T20:01:34.790Z,40.25
2018-05-04T20:04:07.412Z,40.11
2018-05-04T20:06:39.023Z,40.07
2018-05-04T20:09:10.843Z,39.90
2018-05-04T20:11:42.406Z,39.71
2018-05-04T20:14:14.099Z,39.55
2018-05-04T20:16:45.611Z,39.72
2018-05-04T20:19:17.455Z,39.41
2018-05-04T20:21:49.063Z,38.87
2018-05-04T20:24:21.027Z,39.01
2018-05-04T20:26:53.550Z,38.90
2018-05-04T20:29:25.442Z,38.70
2018-05-04T20:31:57.328Z,38.44
2018-05-04T20:34:30.325Z,38.31
2018-05-04T20:37:02.497Z,38.35
2018-05-04T20:41:04.641Z,37.94
2018-05-04T20:43:36.429Z,37.85
2018-05-04T20:46:08.100Z,37.81
2018-05-04T20:48:40.083Z,37.69
2018-05-04T20:51:11.803Z,37.64
2018-05-04T20:53:44.752Z,37.29
2018-05-04T20:56:16.989Z,37.12
2018-05-04T20:58:49.256Z,36.91
2018-05-04T21:01:20.972Z,36.86
2018-05-04T21:03:53.628Z,36.76
2018-05-04T21:06:25.981Z,36.45
2018-05-04T21:08:58.081Z,36.38
2018-05-04T21:11:29.763Z,36.47
2018-05-04T21:14:01.597Z,36.17
2018-05-04T21:16:33.563Z,35.87
2018-05-04T21:19:05.440Z,35.88
2018-05-04T21:21:37.054Z,35.77
2018-05-04T21:24:08.977Z,35.65
2018-05-04T21:26:40.550Z,35.53
2018-05-04T21:29:12.521Z,35.32
2018-05-04T21:31:45.556Z,35.05
2018-05-04T21:34:17.411Z,34.93
2018-05-04T21:36:49.160Z,34.41
2018-05-04T21:39:21.039Z,34.23
2018-05-04T21:41:52.566Z,34.22
2018-05-04T21:44:24.426Z,33.93
2018-05-04T21:46:56.167Z,33.89
2018-05-04T21:49:28.065Z,33.54
2018-05-04T21:52:00.054Z,33.31
2018-05-04T21:54:31.980Z,33.35
2018-05-04T21:57:04.093Z,33.19
2018-05-04T21:59:36.795Z,32.93
2018-05-04T22:02:08.960Z,32.71
2018-05-04T22:04:40.614Z,32.51
2018-05-04T22:07:12.297Z,32.35
2018-05-04T22:09:44.005Z,32.25
2018-05-04T22:12:17.046Z,32.11
2018-05-04T22:14:49.976Z,32.03
2018-05-04T22:17:22.995Z,31.91
2018-05-04T22:19:56.239Z,31.74
2018-05-04T22:22:28.560Z,31.42
2018-05-04T22:25:00.823Z,31.26
2018-05-04T22:27:32.531Z,31.04
2018-05-04T22:30:05.677Z,30.62
2018-05-04T22:32:37.441Z,30.61
2018-05-04T22:35:09.041Z,30.52
2018-05-04T22:37:41.095Z,30.42
2018-05-04T22:40:13.169Z,30.45
2018-05-04T22:42:45.363Z,30.33
2018-05-04T22:45:17.466Z,30.27
2018-05-04T22:47:49.528Z,30.27
2018-05-04T22:50:21.791Z,30.15
2018-05-04T22:52:53.747Z,29.93
2018-05-04T22:55:25.519Z,29.81
2018-05-04T22:57:57.141Z,29.67
2018-05-04T23:00:29.697Z,29.70
2018-05-04T23:03:01.460Z,29.62
2018-05-04T23:05:33.602Z,29.40
2018-05-04T23:08:05.375Z,29.31
2018-05-04T23:10:38.736Z,29.28
2018-05-04T23:13:11.509Z,29.20
2018-05-04T23:15:45.437Z,29.02
2018-05-04T23:18:17.160Z,28.96
2018-05-04T23:20:50.141Z,28.83
2018-05-04T23:23:22.462Z,28.54
2018-05-04T23:25:54.395Z,28.54
2018-05-04T23:28:26.014Z,28.31
2018-05-04T23:30:58.141Z,28.33
2018-05-04T23:33:30.009Z,28.37
2018-05-04T23:36:01.556Z,28.28
2018-05-04T23:38:33.091Z,27.90
2018-05-04T23:42:36.296Z,28.33
2018-05-04T23:45:07.999Z,29.21
2018-05-04T23:47:39.610Z,29.66
2018-05-04T23:50:12.556Z,30.23
2018-05-04T23:52:45.255Z,29.30
2018-05-04T23:55:17.606Z,28.98
2018-05-04T23:57:49.039Z,29.81
